sensor_id;sensor_type;location;lat;lon;timestamp;pressure;altitude;pressure_sealevel;temperature;humidity
6030;BME280;3043;42.682;23.376;2023-04-03T00:01:28;94345.03;;;8.94;100.00
6030;BME280;3043;42.682;23.376;2023-04-03T00:03:53;94343.19;;;8.98;100.00
6030;BME280;3043;42.682;23.376;2023-04-03T00:06:20;94340.94;;;8.87;100.00
6030;BME280;3043;42.682;23.376;2023-04-03T00:08:45;94330.00;;;8.79;100.00
6030;BME280;3043;42.682;23.376;2023-04-03T00:11:11;94329.34;;;8.71;100.00
6030;BME280;3043;42.682;23.376;2023-04-03T00:13:37;94324.38;;;8.65;100.00
6030;BME280;3043;42.682;23.376;2023-04-03T00:16:04;94314.13;;;8.62;100.00
6030;BME280;3043;42.682;23.376;2023-04-03T00:18:29;94316.84;;;8.58;100.00
6030;BME280;3043;42.682;23.376;2023-04-03T00:20:55;94314.78;;;8.69;100.00
6030;BME280;3043;42.682;23.376;2023-04-03T00:23:20;94313.72;;;8.77;100.00
6030;BME280;3043;42.682;23.376;2023-04-03T00:25:46;94312.13;;;8.73;100.00
6030;BME280;3043;42.682;23.376;2023-04-03T00:28:11;94309.53;;;8.73;100.00
6030;BME280;3043;42.682;23.376;2023-04-03T00:30:37;94310.50;;;8.69;100.00
6030;BME280;3043;42.682;23.376;2023-04-03T00:33:02;94309.25;;;8.53;100.00
6030;BME280;3043;42.682;23.376;2023-04-03T00:35:28;94308.25;;;8.57;100.00
6030;BME280;3043;42.682;23.376;2023-04-03T00:37:55;94315.50;;;8.43;100.00
6030;BME280;3043;42.682;23.376;2023-04-03T00:40:25;94315.22;;;8.23;100.00
6030;BME280;3043;42.682;23.376;2023-04-03T00:42:58;94314.63;;;8.12;100.00
6030;BME280;3043;42.682;23.376;2023-04-03T00:45:28;94314.50;;;8.17;100.00
6030;BME280;3043;42.682;23.376;2023-04-03T00:47:54;94314.69;;;8.09;100.00
6030;BME280;3043;42.682;23.376;2023-04-03T00:50:20;94318.47;;;8.30;100.00
6030;BME280;3043;42.682;23.376;2023-04-03T00:52:46;94310.59;;;8.34;100.00
6030;BME280;3043;42.682;23.376;2023-04-03T00:55:14;94312.13;;;8.43;100.00
6030;BME280;3043;42.682;23.376;2023-04-03T00:57:41;94314.66;;;8.44;100.00
6030;BME280;3043;42.682;23.376;2023-04-03T01:00:10;94323.00;;;8.52;100.00
6030;BME280;3043;42.682;23.376;2023-04-03T01:02:36;94325.50;;;8.55;100.00
6030;BME280;3043;42.682;23.376;2023-04-03T01:05:02;94324.66;;;8.55;100.00
6030;BME280;3043;42.682;23.376;2023-04-03T01:07:29;94321.66;;;8.39;100.00
6030;BME280;3043;42.682;23.376;2023-04-03T01:10:00;94325.03;;;8.41;100.00
6030;BME280;3043;42.682;23.376;2023-04-03T01:12:35;94321.63;;;8.41;100.00
6030;BME280;3043;42.682;23.376;2023-04-03T01:15:07;94323.59;;;8.31;100.00
6030;BME280;3043;42.682;23.376;2023-04-03T01:22:58;94316.97;;;8.21;100.00
6030;BME280;3043;42.682;23.376;2023-04-03T01:25:25;94321.06;;;7.61;100.00
6030;BME280;3043;42.682;23.376;2023-04-03T01:27:51;94325.72;;;7.47;100.00
6030;BME280;3043;42.682;23.376;2023-04-03T01:30:19;94320.63;;;7.44;100.00
6030;BME280;3043;42.682;23.376;2023-04-03T01:32:45;94318.56;;;7.58;100.00
6030;BME280;3043;42.682;23.376;2023-04-03T01:35:11;94321.66;;;7.72;100.00
6030;BME280;3043;42.682;23.376;2023-04-03T01:37:36;94316.88;;;7.57;100.00
6030;BME280;3043;42.682;23.376;2023-04-03T01:40:03;94317.47;;;7.68;100.00
6030;BME280;3043;42.682;23.376;2023-04-03T01:42:29;94318.28;;;7.70;100.00
6030;BME280;3043;42.682;23.376;2023-04-03T01:44:54;94319.00;;;7.40;100.00
6030;BME280;3043;42.682;23.376;2023-04-03T01:47:21;94320.44;;;7.15;100.00
6030;BME280;3043;42.682;23.376;2023-04-03T01:49:46;94320.91;;;7.32;100.00
6030;BME280;3043;42.682;23.376;2023-04-03T01:52:12;94322.88;;;7.21;100.00
6030;BME280;3043;42.682;23.376;2023-04-03T01:54:37;94331.53;;;7.17;100.00
6030;BME280;3043;42.682;23.376;2023-04-03T01:57:03;94334.66;;;7.31;100.00
6030;BME280;3043;42.682;23.376;2023-04-03T01:59:28;94327.88;;;7.27;100.00
6030;BME280;3043;42.682;23.376;2023-04-03T02:01:54;94333.97;;;7.24;100.00
6030;BME280;3043;42.682;23.376;2023-04-03T02:04:19;94337.22;;;6.93;100.00
6030;BME280;3043;42.682;23.376;2023-04-03T02:06:45;94332.19;;;6.87;100.00
6030;BME280;3043;42.682;23.376;2023-04-03T02:09:10;94340.94;;;6.80;100.00
6030;BME280;3043;42.682;23.376;2023-04-03T02:11:36;94335.41;;;6.98;100.00
6030;BME280;3043;42.682;23.376;2023-04-03T02:14:01;94329.78;;;7.19;100.00
6030;BME280;3043;42.682;23.376;2023-04-03T02:16:27;94334.22;;;7.12;100.00
6030;BME280;3043;42.682;23.376;2023-04-03T02:18:54;94339.19;;;6.82;100.00
6030;BME280;3043;42.682;23.376;2023-04-03T02:21:19;94335.59;;;6.89;100.00
6030;BME280;3043;42.682;23.376;2023-04-03T02:23:45;94326.91;;;6.93;100.00
6030;BME280;3043;42.682;23.376;2023-04-03T02:26:13;94321.84;;;6.90;100.00
6030;BME280;3043;42.682;23.376;2023-04-03T02:28:39;94322.59;;;6.95;100.00
6030;BME280;3043;42.682;23.376;2023-04-03T02:31:06;94308.25;;;6.85;100.00
6030;BME280;3043;42.682;23.376;2023-04-03T02:33:33;94306.69;;;6.78;100.00
6030;BME280;3043;42.682;23.376;2023-04-03T02:35:59;94304.94;;;6.80;100.00
6030;BME280;3043;42.682;23.376;2023-04-03T02:38:25;94304.78;;;6.86;100.00
6030;BME280;3043;42.682;23.376;2023-04-03T02:40:51;94307.94;;;7.00;100.00
6030;BME280;3043;42.682;23.376;2023-04-03T02:43:17;94306.97;;;7.04;100.00
6030;BME280;3043;42.682;23.376;2023-04-03T02:45:43;94314.69;;;7.04;100.00
6030;BME280;3043;42.682;23.376;2023-04-03T02:48:08;94310.44;;;7.03;100.00
6030;BME280;3043;42.682;23.376;2023-04-03T02:50:34;94309.59;;;7.01;100.00
6030;BME280;3043;42.682;23.376;2023-04-03T02:52:59;94297.56;;;7.03;100.00
6030;BME280;3043;42.682;23.376;2023-04-03T02:55:24;94308.81;;;6.97;100.00
6030;BME280;3043;42.682;23.376;2023-04-03T02:57:50;94306.28;;;6.96;100.00
6030;BME280;3043;42.682;23.376;2023-04-03T03:00:16;94302.91;;;6.94;100.00
6030;BME280;3043;42.682;23.376;2023-04-03T03:02:41;94302.25;;;6.84;100.00
6030;BME280;3043;42.682;23.376;2023-04-03T03:05:07;94296.00;;;6.55;100.00
6030;BME280;3043;42.682;23.376;2023-04-03T03:07:33;94296.81;;;6.58;100.00
6030;BME280;3043;42.682;23.376;2023-04-03T03:09:59;94291.19;;;6.81;100.00
6030;BME280;3043;42.682;23.376;2023-04-03T03:12:24;94285.44;;;6.70;100.00
6030;BME280;3043;42.682;23.376;2023-04-03T03:14:50;94284.56;;;6.71;100.00
6030;BME280;3043;42.682;23.376;2023-04-03T03:17:16;94282.88;;;6.70;100.00
6030;BME280;3043;42.682;23.376;2023-04-03T03:19:42;94279.28;;;6.77;100.00
6030;BME280;3043;42.682;23.376;2023-04-03T03:22:08;94279.53;;;6.65;100.00
6030;BME280;3043;42.682;23.376;2023-04-03T03:24:33;94283.75;;;6.67;100.00
6030;BME280;3043;42.682;23.376;2023-04-03T03:26:58;94283.59;;;6.75;100.00
6030;BME280;3043;42.682;23.376;2023-04-03T03:29:24;94294.50;;;6.86;100.00
6030;BME280;3043;42.682;23.376;2023-04-03T03:31:49;94290.78;;;6.99;100.00
6030;BME280;3043;42.682;23.376;2023-04-03T03:34:15;94286.38;;;6.66;100.00
6030;BME280;3043;42.682;23.376;2023-04-03T03:36:40;94286.56;;;6.57;100.00
6030;BME280;3043;42.682;23.376;2023-04-03T03:39:06;94292.66;;;6.53;100.00
6030;BME280;3043;42.682;23.376;2023-04-03T03:41:31;94295.16;;;6.56;100.00
6030;BME280;3043;42.682;23.376;2023-04-03T03:43:57;94295.22;;;6.53;100.00
6030;BME280;3043;42.682;23.376;2023-04-03T03:46:22;94289.94;;;6.59;100.00
6030;BME280;3043;42.682;23.376;2023-04-03T03:48:48;94287.50;;;6.53;100.00
6030;BME280;3043;42.682;23.376;2023-04-03T03:51:13;94280.00;;;6.44;100.00
6030;BME280;3043;42.682;23.376;2023-04-03T03:53:39;94285.06;;;6.47;100.00
6030;BME280;3043;42.682;23.376;2023-04-03T03:56:05;94286.81;;;6.45;100.00
6030;BME280;3043;42.682;23.376;2023-04-03T03:58:32;94290.28;;;6.44;100.00
6030;BME280;3043;42.682;23.376;2023-04-03T04:01:01;94293.06;;;6.33;100.00
6030;BME280;3043;42.682;23.376;2023-04-03T04:03:27;94287.78;;;6.39;100.00
6030;BME280;3043;42.682;23.376;2023-04-03T04:05:52;94290.22;;;6.47;100.00
6030;BME280;3043;42.682;23.376;2023-04-03T04:08:17;94283.78;;;6.25;100.00
6030;BME280;3043;42.682;23.376;2023-04-03T04:10:43;94281.34;;;6.19;100.00
6030;BME280;3043;42.682;23.376;2023-04-03T04:13:08;94278.00;;;6.14;100.00
6030;BME280;3043;42.682;23.376;2023-04-03T04:15:34;94279.75;;;6.13;100.00
6030;BME280;3043;42.682;23.376;2023-04-03T04:17:59;94290.06;;;6.10;100.00
6030;BME280;3043;42.682;23.376;2023-04-03T04:20:25;94298.22;;;6.32;100.00
6030;BME280;3043;42.682;23.376;2023-04-03T04:22:50;94295.91;;;6.20;100.00
6030;BME280;3043;42.682;23.376;2023-04-03T04:25:16;94302.84;;;6.15;100.00
6030;BME280;3043;42.682;23.376;2023-04-03T04:27:41;94308.47;;;6.33;100.00
6030;BME280;3043;42.682;23.376;2023-04-03T04:30:07;94310.66;;;6.53;100.00
6030;BME280;3043;42.682;23.376;2023-04-03T04:32:33;94308.88;;;6.55;100.00
6030;BME280;3043;42.682;23.376;2023-04-03T04:34:58;94296.97;;;6.51;100.00
6030;BME280;3043;42.682;23.376;2023-04-03T04:37:24;94305.63;;;6.47;100.00
6030;BME280;3043;42.682;23.376;2023-04-03T04:39:50;94313.09;;;6.59;100.00
6030;BME280;3043;42.682;23.376;2023-04-03T04:42:16;94322.22;;;6.72;100.00
6030;BME280;3043;42.682;23.376;2023-04-03T04:44:42;94318.47;;;6.88;100.00
6030;BME280;3043;42.682;23.376;2023-04-03T04:47:07;94314.19;;;6.87;100.00
6030;BME280;3043;42.682;23.376;2023-04-03T04:49:33;94321.44;;;7.08;100.00
6030;BME280;3043;42.682;23.376;2023-04-03T04:51:58;94322.38;;;7.05;100.00
6030;BME280;3043;42.682;23.376;2023-04-03T04:54:24;94323.75;;;7.21;100.00
6030;BME280;3043;42.682;23.376;2023-04-03T04:56:49;94326.28;;;7.23;100.00
6030;BME280;3043;42.682;23.376;2023-04-03T04:59:15;94326.53;;;7.11;100.00
6030;BME280;3043;42.682;23.376;2023-04-03T05:01:40;94329.38;;;7.37;100.00
6030;BME280;3043;42.682;23.376;2023-04-03T05:04:06;94340.06;;;7.19;100.00
6030;BME280;3043;42.682;23.376;2023-04-03T05:06:31;94343.41;;;7.24;100.00
6030;BME280;3043;42.682;23.376;2023-04-03T05:08:57;94352.91;;;7.20;100.00
6030;BME280;3043;42.682;23.376;2023-04-03T05:11:23;94364.19;;;7.15;100.00
6030;BME280;3043;42.682;23.376;2023-04-03T05:13:49;94362.25;;;7.26;100.00
6030;BME280;3043;42.682;23.376;2023-04-03T05:16:14;94367.03;;;7.41;100.00
6030;BME280;3043;42.682;23.376;2023-04-03T05:18:39;94353.34;;;7.76;100.00
6030;BME280;3043;42.682;23.376;2023-04-03T05:21:05;94365.97;;;7.86;100.00
6030;BME280;3043;42.682;23.376;2023-04-03T05:23:30;94372.53;;;7.98;100.00
6030;BME280;3043;42.682;23.376;2023-04-03T05:25:56;94368.81;;;8.09;100.00
6030;BME280;3043;42.682;23.376;2023-04-03T05:28:22;94357.75;;;8.06;100.00
6030;BME280;3043;42.682;23.376;2023-04-03T05:30:58;94352.84;;;8.30;100.00
6030;BME280;3043;42.682;23.376;2023-04-03T05:33:24;94352.84;;;8.30;100.00
6030;BME280;3043;42.682;23.376;2023-04-03T05:35:51;94354.19;;;8.43;100.00
6030;BME280;3043;42.682;23.376;2023-04-03T05:38:17;94356.34;;;8.58;100.00
6030;BME280;3043;42.682;23.376;2023-04-03T05:40:42;94348.06;;;8.79;100.00
6030;BME280;3043;42.682;23.376;2023-04-03T05:43:07;94361.22;;;8.99;100.00
6030;BME280;3043;42.682;23.376;2023-04-03T05:45:33;94348.75;;;9.14;100.00
6030;BME280;3043;42.682;23.376;2023-04-03T05:47:58;94359.03;;;9.44;100.00
6030;BME280;3043;42.682;23.376;2023-04-03T05:50:24;94363.16;;;9.50;100.00
6030;BME280;3043;42.682;23.376;2023-04-03T05:52:50;94346.63;;;9.83;100.00
6030;BME280;3043;42.682;23.376;2023-04-03T05:55:17;94350.84;;;9.85;100.00
6030;BME280;3043;42.682;23.376;2023-04-03T05:57:43;94347.91;;;9.96;100.00
6030;BME280;3043;42.682;23.376;2023-04-03T06:00:12;94347.25;;;9.89;100.00
6030;BME280;3043;42.682;23.376;2023-04-03T06:02:38;94345.13;;;9.76;100.00
6030;BME280;3043;42.682;23.376;2023-04-03T06:05:04;94342.69;;;9.44;100.00
6030;BME280;3043;42.682;23.376;2023-04-03T06:07:29;94336.44;;;9.51;100.00
6030;BME280;3043;42.682;23.376;2023-04-03T06:09:56;94340.72;;;9.52;100.00
6030;BME280;3043;42.682;23.376;2023-04-03T06:12:22;94332.16;;;9.77;100.00
6030;BME280;3043;42.682;23.376;2023-04-03T06:14:48;94333.78;;;10.06;100.00
6030;BME280;3043;42.682;23.376;2023-04-03T06:17:15;94332.81;;;9.84;100.00
6030;BME280;3043;42.682;23.376;2023-04-03T06:19:41;94330.41;;;10.04;100.00
6030;BME280;3043;42.682;23.376;2023-04-03T06:22:06;94328.03;;;10.24;100.00
6030;BME280;3043;42.682;23.376;2023-04-03T06:24:32;94320.69;;;10.36;100.00
6030;BME280;3043;42.682;23.376;2023-04-03T06:26:58;94332.66;;;10.63;100.00
6030;BME280;3043;42.682;23.376;2023-04-03T06:29:24;94329.41;;;10.83;100.00
6030;BME280;3043;42.682;23.376;2023-04-03T06:31:50;94344.38;;;10.98;100.00
6030;BME280;3043;42.682;23.376;2023-04-03T06:34:16;94344.41;;;11.20;100.00
6030;BME280;3043;42.682;23.376;2023-04-03T06:36:43;94350.88;;;11.54;100.00
6030;BME280;3043;42.682;23.376;2023-04-03T06:39:18;94364.41;;;11.84;100.00
6030;BME280;3043;42.682;23.376;2023-04-03T06:41:45;94362.47;;;12.10;100.00
6030;BME280;3043;42.682;23.376;2023-04-03T06:44:11;94361.03;;;12.03;100.00
6030;BME280;3043;42.682;23.376;2023-04-03T06:46:38;94354.75;;;11.66;100.00
6030;BME280;3043;42.682;23.376;2023-04-03T06:49:04;94351.38;;;11.64;100.00
6030;BME280;3043;42.682;23.376;2023-04-03T06:51:32;94358.44;;;11.37;100.00
6030;BME280;3043;42.682;23.376;2023-04-03T06:53:59;94348.88;;;11.39;100.00
6030;BME280;3043;42.682;23.376;2023-04-03T06:56:26;94352.00;;;11.24;100.00
6030;BME280;3043;42.682;23.376;2023-04-03T06:58:52;94352.69;;;11.06;100.00
6030;BME280;3043;42.682;23.376;2023-04-03T07:01:20;94357.28;;;11.21;100.00
6030;BME280;3043;42.682;23.376;2023-04-03T07:03:47;94359.56;;;11.30;100.00
6030;BME280;3043;42.682;23.376;2023-04-03T07:06:14;94355.38;;;11.26;100.00
6030;BME280;3043;42.682;23.376;2023-04-03T07:08:40;94347.59;;;11.49;100.00
6030;BME280;3043;42.682;23.376;2023-04-03T07:11:08;94346.19;;;11.85;100.00
6030;BME280;3043;42.682;23.376;2023-04-03T07:13:33;94340.19;;;11.85;100.00
6030;BME280;3043;42.682;23.376;2023-04-03T07:15:59;94338.47;;;11.84;100.00
6030;BME280;3043;42.682;23.376;2023-04-03T07:18:25;94340.63;;;11.94;100.00
6030;BME280;3043;42.682;23.376;2023-04-03T07:20:50;94324.69;;;12.25;100.00
6030;BME280;3043;42.682;23.376;2023-04-03T07:23:16;94328.97;;;12.66;100.00
6030;BME280;3043;42.682;23.376;2023-04-03T07:25:46;94328.78;;;12.71;100.00
6030;BME280;3043;42.682;23.376;2023-04-03T07:28:13;94319.16;;;12.93;100.00
6030;BME280;3043;42.682;23.376;2023-04-03T07:30:49;94322.94;;;13.24;100.00
6030;BME280;3043;42.682;23.376;2023-04-03T07:33:15;94338.22;;;13.12;100.00
6030;BME280;3043;42.682;23.376;2023-04-03T07:35:42;94325.94;;;13.34;100.00
6030;BME280;3043;42.682;23.376;2023-04-03T07:38:08;94331.78;;;13.39;100.00
6030;BME280;3043;42.682;23.376;2023-04-03T07:40:34;94336.22;;;13.37;100.00
6030;BME280;3043;42.682;23.376;2023-04-03T07:43:00;94320.16;;;13.09;100.00
6030;BME280;3043;42.682;23.376;2023-04-03T07:45:26;94320.03;;;13.12;100.00
6030;BME280;3043;42.682;23.376;2023-04-03T07:47:52;94320.63;;;13.18;100.00
6030;BME280;3043;42.682;23.376;2023-04-03T07:50:18;94308.59;;;12.37;100.00
6030;BME280;3043;42.682;23.376;2023-04-03T07:52:44;94310.19;;;12.80;100.00
6030;BME280;3043;42.682;23.376;2023-04-03T07:55:11;94311.97;;;12.98;100.00
6030;BME280;3043;42.682;23.376;2023-04-03T07:57:36;94311.16;;;12.97;100.00
6030;BME280;3043;42.682;23.376;2023-04-03T08:00:05;94313.94;;;12.93;100.00
6030;BME280;3043;42.682;23.376;2023-04-03T08:02:31;94305.53;;;12.68;100.00
6030;BME280;3043;42.682;23.376;2023-04-03T08:05:00;94302.25;;;12.83;100.00
6030;BME280;3043;42.682;23.376;2023-04-03T08:07:25;94297.00;;;13.04;100.00
6030;BME280;3043;42.682;23.376;2023-04-03T08:09:51;94304.06;;;13.01;100.00
6030;BME280;3043;42.682;23.376;2023-04-03T08:12:16;94301.78;;;13.32;100.00
6030;BME280;3043;42.682;23.376;2023-04-03T08:14:42;94299.53;;;13.43;100.00
6030;BME280;3043;42.682;23.376;2023-04-03T08:17:08;94293.78;;;13.55;100.00
6030;BME280;3043;42.682;23.376;2023-04-03T08:19:37;94294.59;;;13.55;100.00
6030;BME280;3043;42.682;23.376;2023-04-03T08:22:03;94293.00;;;13.53;100.00
6030;BME280;3043;42.682;23.376;2023-04-03T08:24:33;94294.59;;;13.55;100.00
6030;BME280;3043;42.682;23.376;2023-04-03T08:26:59;94284.63;;;13.46;100.00
6030;BME280;3043;42.682;23.376;2023-04-03T08:29:24;94288.72;;;13.52;100.00
6030;BME280;3043;42.682;23.376;2023-04-03T08:31:50;94294.88;;;13.68;100.00
6030;BME280;3043;42.682;23.376;2023-04-03T08:34:16;94293.19;;;13.67;100.00
6030;BME280;3043;42.682;23.376;2023-04-03T08:36:42;94296.69;;;13.66;100.00
6030;BME280;3043;42.682;23.376;2023-04-03T08:39:08;94282.53;;;14.07;100.00
6030;BME280;3043;42.682;23.376;2023-04-03T08:41:38;94275.03;;;14.18;100.00
6030;BME280;3043;42.682;23.376;2023-04-03T08:49:43;94272.94;;;14.93;100.00
6030;BME280;3043;42.682;23.376;2023-04-03T08:52:24;94270.84;;;14.99;100.00
6030;BME280;3043;42.682;23.376;2023-04-03T08:54:59;94267.97;;;14.88;100.00
6030;BME280;3043;42.682;23.376;2023-04-03T08:57:39;94266.53;;;14.98;100.00
6030;BME280;3043;42.682;23.376;2023-04-03T09:00:15;94256.09;;;15.31;100.00
6030;BME280;3043;42.682;23.376;2023-04-03T09:02:44;94252.25;;;15.53;100.00
6030;BME280;3043;42.682;23.376;2023-04-03T09:05:16;94249.41;;;15.58;100.00
6030;BME280;3043;42.682;23.376;2023-04-03T09:07:46;94246.78;;;16.19;97.66
6030;BME280;3043;42.682;23.376;2023-04-03T09:10:14;94249.06;;;16.39;93.52
6030;BME280;3043;42.682;23.376;2023-04-03T09:12:49;94250.97;;;16.21;93.75
6030;BME280;3043;42.682;23.376;2023-04-03T09:15:24;94239.66;;;16.07;99.19
6030;BME280;3043;42.682;23.376;2023-04-03T09:23:50;94228.25;;;16.08;91.43
6030;BME280;3043;42.682;23.376;2023-04-03T09:26:25;94221.56;;;15.58;94.90
6030;BME280;3043;42.682;23.376;2023-04-03T09:28:57;94226.31;;;15.19;99.61
6030;BME280;3043;42.682;23.376;2023-04-03T09:31:27;94219.59;;;15.31;100.00
6030;BME280;3043;42.682;23.376;2023-04-03T09:33:57;94215.41;;;15.44;100.00
6030;BME280;3043;42.682;23.376;2023-04-03T09:36:44;94227.66;;;15.73;97.57
6030;BME280;3043;42.682;23.376;2023-04-03T09:39:16;94222.63;;;15.54;97.33
6030;BME280;3043;42.682;23.376;2023-04-03T09:41:55;94224.81;;;15.31;100.00
6030;BME280;3043;42.682;23.376;2023-04-03T09:44:26;94214.28;;;15.32;100.00
6030;BME280;3043;42.682;23.376;2023-04-03T09:46:52;94212.38;;;15.51;100.00
6030;BME280;3043;42.682;23.376;2023-04-03T09:49:18;94214.41;;;15.46;99.84
6030;BME280;3043;42.682;23.376;2023-04-03T09:51:45;94204.63;;;15.65;97.89
6030;BME280;3043;42.682;23.376;2023-04-03T09:54:31;94203.94;;;15.62;95.90
6030;BME280;3043;42.682;23.376;2023-04-03T09:56:58;94201.25;;;15.32;97.51
6030;BME280;3043;42.682;23.376;2023-04-03T09:59:26;94200.91;;;15.07;100.00
6030;BME280;3043;42.682;23.376;2023-04-03T10:04:59;94198.97;;;14.47;100.00
6030;BME280;3043;42.682;23.376;2023-04-03T10:07:29;94197.31;;;14.29;100.00
6030;BME280;3043;42.682;23.376;2023-04-03T10:12:40;94194.44;;;14.16;100.00
6030;BME280;3043;42.682;23.376;2023-04-03T10:15:13;94191.03;;;13.99;100.00
6030;BME280;3043;42.682;23.376;2023-04-03T10:20:37;94190.69;;;13.71;100.00
6030;BME280;3043;42.682;23.376;2023-04-03T10:25:41;94178.94;;;13.64;100.00
6030;BME280;3043;42.682;23.376;2023-04-03T10:28:23;94183.53;;;13.76;100.00
6030;BME280;3043;42.682;23.376;2023-04-03T10:36:35;94169.72;;;14.42;100.00
6030;BME280;3043;42.682;23.376;2023-04-03T10:46:37;94161.25;;;14.54;100.00
6030;BME280;3043;42.682;23.376;2023-04-03T10:49:21;94150.09;;;14.52;100.00
6030;BME280;3043;42.682;23.376;2023-04-03T10:52:04;94154.09;;;14.42;100.00
6030;BME280;3043;42.682;23.376;2023-04-03T10:54:39;94155.63;;;14.46;100.00
6030;BME280;3043;42.682;23.376;2023-04-03T10:57:11;94153.75;;;14.48;100.00
6030;BME280;3043;42.682;23.376;2023-04-03T10:59:38;94152.09;;;14.47;100.00
6030;BME280;3043;42.682;23.376;2023-04-03T11:02:30;94159.41;;;14.56;100.00
6030;BME280;3043;42.682;23.376;2023-04-03T11:05:07;94161.16;;;14.56;100.00
6030;BME280;3043;42.682;23.376;2023-04-03T11:07:42;94161.44;;;14.34;100.00
6030;BME280;3043;42.682;23.376;2023-04-03T11:10:42;94171.72;;;14.03;100.00
6030;BME280;3043;42.682;23.376;2023-04-03T11:13:11;94164.25;;;13.80;100.00
6030;BME280;3043;42.682;23.376;2023-04-03T11:15:38;94173.63;;;13.82;100.00
6030;BME280;3043;42.682;23.376;2023-04-03T11:18:06;94175.94;;;13.71;100.00
6030;BME280;3043;42.682;23.376;2023-04-03T11:20:35;94181.75;;;13.59;100.00
6030;BME280;3043;42.682;23.376;2023-04-03T11:23:04;94166.19;;;13.41;100.00
6030;BME280;3043;42.682;23.376;2023-04-03T11:25:33;94174.09;;;13.21;100.00
6030;BME280;3043;42.682;23.376;2023-04-03T11:28:02;94169.34;;;13.12;100.00
6030;BME280;3043;42.682;23.376;2023-04-03T11:35:47;94159.53;;;12.44;100.00
6030;BME280;3043;42.682;23.376;2023-04-03T11:38:25;94158.25;;;12.52;100.00
6030;BME280;3043;42.682;23.376;2023-04-03T11:40:54;94154.25;;;12.45;100.00
6030;BME280;3043;42.682;23.376;2023-04-03T11:43:29;94161.03;;;12.29;100.00
6030;BME280;3043;42.682;23.376;2023-04-03T11:50:54;94164.41;;;12.31;100.00
6030;BME280;3043;42.682;23.376;2023-04-03T11:53:40;94168.03;;;12.27;100.00
6030;BME280;3043;42.682;23.376;2023-04-03T12:01:47;94167.75;;;11.75;100.00
6030;BME280;3043;42.682;23.376;2023-04-03T12:04:14;94155.31;;;11.63;100.00
6030;BME280;3043;42.682;23.376;2023-04-03T12:09:34;94163.22;;;11.38;100.00
6030;BME280;3043;42.682;23.376;2023-04-03T12:12:20;94161.53;;;11.16;100.00
6030;BME280;3043;42.682;23.376;2023-04-03T12:14:47;94158.22;;;11.12;100.00
6030;BME280;3043;42.682;23.376;2023-04-03T12:17:22;94160.59;;;10.97;100.00
6030;BME280;3043;42.682;23.376;2023-04-03T12:19:49;94152.78;;;10.98;100.00
6030;BME280;3043;42.682;23.376;2023-04-03T12:22:18;94146.25;;;10.88;100.00
6030;BME280;3043;42.682;23.376;2023-04-03T12:24:50;94146.63;;;10.79;100.00
6030;BME280;3043;42.682;23.376;2023-04-03T12:27:40;94134.22;;;10.65;100.00
6030;BME280;3043;42.682;23.376;2023-04-03T12:30:15;94130.34;;;10.54;100.00
6030;BME280;3043;42.682;23.376;2023-04-03T12:41:11;94103.94;;;10.23;100.00
6030;BME280;3043;42.682;23.376;2023-04-03T12:44:13;94094.97;;;10.10;100.00
6030;BME280;3043;42.682;23.376;2023-04-03T12:46:45;94101.03;;;10.09;100.00
6030;BME280;3043;42.682;23.376;2023-04-03T12:51:59;94076.91;;;9.85;100.00
6030;BME280;3043;42.682;23.376;2023-04-03T12:54:40;94076.25;;;9.79;100.00
6030;BME280;3043;42.682;23.376;2023-04-03T12:59:35;94070.75;;;9.65;100.00
6030;BME280;3043;42.682;23.376;2023-04-03T13:02:02;94064.97;;;9.58;100.00
6030;BME280;3043;42.682;23.376;2023-04-03T13:04:29;94071.88;;;9.58;100.00
6030;BME280;3043;42.682;23.376;2023-04-03T13:06:55;94071.97;;;9.55;100.00
6030;BME280;3043;42.682;23.376;2023-04-03T13:09:29;94069.56;;;9.50;100.00
6030;BME280;3043;42.682;23.376;2023-04-03T13:12:00;94070.28;;;9.54;100.00
6030;BME280;3043;42.682;23.376;2023-04-03T13:14:27;94073.88;;;9.50;100.00
6030;BME280;3043;42.682;23.376;2023-04-03T13:16:57;94068.47;;;9.56;100.00
6030;BME280;3043;42.682;23.376;2023-04-03T13:19:27;94061.22;;;9.42;100.00
6030;BME280;3043;42.682;23.376;2023-04-03T13:22:05;94066.22;;;9.47;100.00
6030;BME280;3043;42.682;23.376;2023-04-03T13:24:35;94061.53;;;9.58;100.00
6030;BME280;3043;42.682;23.376;2023-04-03T13:27:03;94060.78;;;9.54;100.00
6030;BME280;3043;42.682;23.376;2023-04-03T13:29:36;94058.69;;;9.41;100.00
6030;BME280;3043;42.682;23.376;2023-04-03T13:32:03;94059.59;;;9.40;100.00
6030;BME280;3043;42.682;23.376;2023-04-03T13:34:37;94051.47;;;9.26;100.00
6030;BME280;3043;42.682;23.376;2023-04-03T13:37:03;94050.69;;;9.24;100.00
6030;BME280;3043;42.682;23.376;2023-04-03T13:39:30;94048.69;;;9.07;100.00
6030;BME280;3043;42.682;23.376;2023-04-03T13:41:57;94045.63;;;9.21;100.00
6030;BME280;3043;42.682;23.376;2023-04-03T13:44:32;94047.34;;;9.22;100.00
6030;BME280;3043;42.682;23.376;2023-04-03T13:47:37;94042.16;;;9.22;100.00
6030;BME280;3043;42.682;23.376;2023-04-03T13:50:04;94031.72;;;9.25;100.00
6030;BME280;3043;42.682;23.376;2023-04-03T13:52:44;94040.28;;;9.27;100.00
6030;BME280;3043;42.682;23.376;2023-04-03T13:55:28;94035.19;;;9.24;100.00
6030;BME280;3043;42.682;23.376;2023-04-03T13:58:01;94026.47;;;9.28;100.00
6030;BME280;3043;42.682;23.376;2023-04-03T14:00:38;94032.78;;;9.19;100.00
6030;BME280;3043;42.682;23.376;2023-04-03T14:03:24;94033.72;;;9.17;100.00
6030;BME280;3043;42.682;23.376;2023-04-03T14:05:50;94015.81;;;9.12;100.00
6030;BME280;3043;42.682;23.376;2023-04-03T14:08:17;94026.25;;;9.34;100.00
6030;BME280;3043;42.682;23.376;2023-04-03T14:10:43;94026.34;;;9.31;100.00
6030;BME280;3043;42.682;23.376;2023-04-03T14:13:15;94014.53;;;9.24;100.00
6030;BME280;3043;42.682;23.376;2023-04-03T14:15:41;94019.63;;;9.27;100.00
6030;BME280;3043;42.682;23.376;2023-04-03T14:18:12;94015.16;;;9.30;100.00
6030;BME280;3043;42.682;23.376;2023-04-03T14:20:38;94013.59;;;9.26;100.00
6030;BME280;3043;42.682;23.376;2023-04-03T14:23:03;94019.81;;;9.21;100.00
6030;BME280;3043;42.682;23.376;2023-04-03T14:25:29;94022.38;;;9.21;100.00
6030;BME280;3043;42.682;23.376;2023-04-03T14:27:55;94001.19;;;9.13;100.00